Time,TemperatureF,DewpointF,PressureIn,WindDirection,WindDirectionDegrees,WindSpeedMPH,WindSpeedGustMPH,Humidity,HourlyPrecipIn,Conditions,Clouds,dailyrainin,SoftwareType,DateUTC
2013-06-28 00:01:00,67.0,57.0,29.79,NE,49,19.0,28.0,70,0.00,,,0.01,,2013-06-28 05:01:00,
2013-06-28 00:11:00,67.0,57.0,29.79,NE,49,19.0,28.0,70,0.00,,,0.01,,2013-06-28 05:11:00,
2013-06-28 00:22:00,67.0,58.0,29.78,NNE,22,12.0,21.0,72,0.00,,,0.01,,2013-06-28 05:22:00,
2013-06-28 00:33:00,67.0,57.0,29.77,North,359,9.0,16.0,71,0.00,,,0.01,,2013-06-28 05:33:00,
2013-06-28 00:43:00,67.0,57.0,29.77,North,359,9.0,16.0,71,0.00,,,0.01,,2013-06-28 05:43:00,
2013-06-28 00:53:00,66.0,58.0,29.76,North,359,3.0,11.0,75,0.00,,,0.01,,2013-06-28 05:53:00,
2013-06-28 01:02:00,65.0,58.0,29.76,NW,317,4.0,8.0,77,0.00,,,0.01,,2013-06-28 06:02:00,
2013-06-28 01:12:00,65.0,58.0,29.76,NW,317,4.0,8.0,77,0.00,,,0.01,,2013-06-28 06:12:00,
2013-06-28 01:22:00,64.0,57.0,29.76,WNW,294,5.0,8.0,79,0.00,,,0.01,,2013-06-28 06:22:00,
2013-06-28 01:33:00,64.0,58.0,29.76,WNW,293,6.0,9.0,80,0.00,,,0.01,,2013-06-28 06:33:00,
2013-06-28 01:42:00,64.0,58.0,29.76,WNW,293,6.0,9.0,80,0.00,,,0.01,,2013-06-28 06:42:00,
2013-06-28 01:52:00,64.0,58.0,29.76,WNW,297,7.0,12.0,80,0.00,,,0.01,,2013-06-28 06:52:00,
2013-06-28 02:01:00,63.0,57.0,29.76,WNW,284,6.0,10.0,81,0.00,,,0.01,,2013-06-28 07:01:00,
2013-06-28 02:11:00,63.0,57.0,29.76,WNW,284,6.0,10.0,81,0.00,,,0.01,,2013-06-28 07:11:00,
2013-06-28 02:22:00,63.0,57.0,29.76,WNW,282,5.0,10.0,82,0.00,,,0.01,,2013-06-28 07:22:00,
2013-06-28 02:33:00,63.0,57.0,29.77,West,271,6.0,10.0,81,0.00,,,0.01,,2013-06-28 07:33:00,
2013-06-28 02:43:00,63.0,57.0,29.77,West,271,6.0,10.0,81,0.00,,,0.01,,2013-06-28 07:43:00,
2013-06-28 02:52:00,63.0,57.0,29.77,West,278,6.0,8.0,82,0.00,,,0.01,,2013-06-28 07:52:00,
2013-06-28 03:01:00,62.0,57.0,29.76,West,269,7.0,10.0,84,0.00,,,0.01,,2013-06-28 08:01:00,
2013-06-28 03:11:00,62.0,57.0,29.76,West,269,7.0,10.0,84,0.00,,,0.01,,2013-06-28 08:11:00,
2013-06-28 03:22:00,62.0,57.0,29.76,West,264,6.0,10.0,83,0.00,,,0.01,,2013-06-28 08:22:00,
2013-06-28 03:33:00,62.0,56.0,29.76,West,278,7.0,11.0,82,0.00,,,0.01,,2013-06-28 08:33:00,
2013-06-28 03:43:00,62.0,56.0,29.76,West,278,7.0,11.0,82,0.00,,,0.01,,2013-06-28 08:43:00,
2013-06-28 03:52:00,63.0,57.0,29.76,WNW,288,8.0,11.0,81,0.00,,,0.01,,2013-06-28 08:52:00,
2013-06-28 04:02:00,63.0,57.0,29.75,WNW,290,10.0,14.0,80,0.00,,,0.01,,2013-06-28 09:02:00,
2013-06-28 04:11:00,63.0,57.0,29.75,WNW,290,10.0,14.0,80,0.00,,,0.01,,2013-06-28 09:11:00,
2013-06-28 04:22:00,63.0,57.0,29.75,WNW,298,10.0,14.0,81,0.00,,,0.01,,2013-06-28 09:22:00,
2013-06-28 04:33:00,63.0,57.0,29.75,West,280,9.0,13.0,81,0.00,,,0.01,,2013-06-28 09:33:00,
2013-06-28 04:42:00,63.0,57.0,29.75,West,280,9.0,13.0,81,0.00,,,0.01,,2013-06-28 09:42:00,
2013-06-28 04:52:00,62.0,56.0,29.75,West,280,9.0,12.0,82,0.00,,,0.01,,2013-06-28 09:52:00,
2013-06-28 05:02:00,62.0,57.0,29.74,WNW,294,7.0,11.0,83,0.00,,,0.01,,2013-06-28 10:02:00,
2013-06-28 05:12:00,62.0,57.0,29.74,WNW,294,7.0,11.0,83,0.00,,,0.01,,2013-06-28 10:12:00,
2013-06-28 05:22:00,62.0,57.0,29.74,West,278,8.0,11.0,84,0.00,,,0.01,,2013-06-28 10:22:00,
2013-06-28 05:33:00,62.0,57.0,29.74,WNW,286,8.0,12.0,84,0.00,,,0.01,,2013-06-28 10:33:00,
2013-06-28 05:42:00,62.0,57.0,29.74,WNW,286,8.0,12.0,84,0.00,,,0.01,,2013-06-28 10:42:00,
2013-06-28 05:52:00,62.0,57.0,29.74,WNW,286,8.0,13.0,83,0.00,,,0.01,,2013-06-28 10:52:00,
2013-06-28 06:02:00,62.0,57.0,29.74,WNW,288,8.0,11.0,84,0.00,,,0.01,,2013-06-28 11:02:00,
2013-06-28 06:11:00,62.0,57.0,29.74,WNW,288,8.0,11.0,84,0.00,,,0.01,,2013-06-28 11:11:00,
2013-06-28 06:22:00,62.0,57.0,29.73,West,280,8.0,13.0,84,0.00,,,0.01,,2013-06-28 11:22:00,
2013-06-28 06:34:00,63.0,58.0,29.73,WNW,292,8.0,11.0,84,0.00,,,0.01,,2013-06-28 11:34:00,
2013-06-28 06:43:00,63.0,58.0,29.73,WNW,292,8.0,11.0,84,0.00,,,0.01,,2013-06-28 11:43:00,
2013-06-28 06:53:00,63.0,58.0,29.74,NW,307,5.0,12.0,84,0.00,,,0.01,,2013-06-28 11:53:00,
2013-06-28 07:02:00,63.0,58.0,29.74,NW,307,5.0,12.0,84,0.00,,,0.01,,2013-06-28 12:02:00,
2013-06-28 07:12:00,64.0,59.0,29.73,WNW,297,9.0,14.0,83,0.00,,,0.01,,2013-06-28 12:12:00,
2013-06-28 07:22:00,65.0,60.0,29.73,NW,307,9.0,15.0,83,0.00,,,0.01,,2013-06-28 12:22:00,
2013-06-28 07:34:00,65.0,60.0,29.73,NW,307,9.0,15.0,83,0.00,,,0.01,,2013-06-28 12:34:00,
2013-06-28 07:43:00,65.0,60.0,29.73,WNW,294,12.0,18.0,83,0.00,,,0.01,,2013-06-28 12:43:00,
2013-06-28 07:52:00,66.0,60.0,29.73,NW,314,8.0,16.0,82,0.00,,,0.01,,2013-06-28 12:52:00,
2013-06-28 08:01:00,66.0,60.0,29.73,NW,314,8.0,16.0,82,0.00,,,0.01,,2013-06-28 13:01:00,
2013-06-28 08:11:00,66.0,60.0,29.73,NW,309,11.0,16.0,81,0.00,,,0.01,,2013-06-28 13:11:00,
2013-06-28 08:23:00,66.0,60.0,29.73,NW,324,9.0,16.0,81,0.00,,,0.01,,2013-06-28 13:23:00,
2013-06-28 08:33:00,66.0,60.0,29.73,NW,324,9.0,16.0,81,0.00,,,0.01,,2013-06-28 13:33:00,
2013-06-28 08:43:00,66.0,60.0,29.73,NW,321,9.0,15.0,82,0.00,,,0.01,,2013-06-28 13:43:00,
2013-06-28 08:53:00,66.0,60.0,29.72,NW,313,14.0,18.0,81,0.00,,,0.01,,2013-06-28 13:53:00,
2013-06-28 09:02:00,66.0,60.0,29.72,NW,313,14.0,18.0,81,0.00,,,0.01,,2013-06-28 14:02:00,
2013-06-28 09:12:00,66.0,60.0,29.72,NW,304,9.0,18.0,81,0.00,,,0.01,,2013-06-28 14:12:00,
2013-06-28 09:22:00,65.0,60.0,29.73,NW,307,13.0,20.0,85,0.00,,,0.01,,2013-06-28 14:22:00,
2013-06-28 09:33:00,65.0,60.0,29.73,NW,307,13.0,20.0,85,0.00,,,0.01,,2013-06-28 14:33:00,
2013-06-28 09:44:00,64.0,60.0,29.73,NW,305,6.0,13.0,86,0.00,,,0.01,,2013-06-28 14:44:00,
2013-06-28 09:53:00,64.0,61.0,29.72,NNW,334,5.0,17.0,90,0.00,,,0.01,,2013-06-28 14:53:00,
2013-06-28 10:02:00,64.0,61.0,29.72,NNW,334,5.0,17.0,90,0.00,,,0.01,,2013-06-28 15:02:00,
2013-06-28 10:11:00,65.0,62.0,29.72,NW,304,7.0,12.0,90,0.00,,,0.01,,2013-06-28 15:11:00,
2013-06-28 10:24:00,66.0,61.0,29.72,NW,315,12.0,17.0,85,0.00,,,0.00,,2013-06-28 15:24:00,
2013-06-28 10:34:00,66.0,61.0,29.72,NW,315,12.0,17.0,85,0.00,,,0.00,,2013-06-28 15:34:00,
2013-06-28 10:43:00,66.0,61.0,29.72,NNW,332,9.0,17.0,85,0.00,,,0.00,,2013-06-28 15:43:00,
2013-06-28 10:52:00,67.0,62.0,29.72,NNW,342,11.0,16.0,84,0.00,,,0.00,,2013-06-28 15:52:00,
2013-06-28 11:01:00,67.0,62.0,29.72,NNW,342,11.0,16.0,84,0.00,,,0.00,,2013-06-28 16:01:00,
2013-06-28 11:11:00,68.0,62.0,29.72,NNW,332,10.0,21.0,82,0.00,,,0.00,,2013-06-28 16:11:00,
2013-06-28 11:24:00,68.0,62.0,29.72,NW,313,13.0,23.0,80,0.00,,,0.00,,2013-06-28 16:24:00,
2013-06-28 11:33:00,68.0,62.0,29.72,NW,313,13.0,23.0,80,0.00,,,0.00,,2013-06-28 16:33:00,
2013-06-28 11:44:00,68.0,62.0,29.72,NNW,343,11.0,18.0,80,0.00,,,0.00,,2013-06-28 16:44:00,
2013-06-28 11:53:00,67.0,61.0,29.73,NNW,330,9.0,18.0,82,0.00,,,0.00,,2013-06-28 16:53:00,
2013-06-28 12:02:00,67.0,61.0,29.73,NNW,330,9.0,18.0,82,0.00,,,0.00,,2013-06-28 17:02:00,
2013-06-28 12:11:00,69.0,62.0,29.73,North,7,13.0,20.0,78,0.00,,,0.00,,2013-06-28 17:11:00,
2013-06-28 12:22:00,70.0,63.0,29.73,NW,311,8.0,19.0,78,0.00,,,0.00,,2013-06-28 17:22:00,
2013-06-28 12:33:00,70.0,63.0,29.73,NW,311,8.0,19.0,78,0.00,,,0.00,,2013-06-28 17:33:00,
2013-06-28 12:44:00,69.0,62.0,29.73,WNW,303,11.0,24.0,79,0.00,,,0.00,,2013-06-28 17:44:00,
2013-06-28 12:52:00,70.0,63.0,29.74,WNW,302,13.0,22.0,78,0.00,,,0.00,,2013-06-28 17:52:00,
2013-06-28 13:11:00,69.0,64.0,29.74,NNW,345,14.0,19.0,84,0.01,,,0.01,,2013-06-28 18:11:00,
2013-06-28 13:22:00,70.0,64.0,29.73,NW,318,10.0,20.0,80,0.01,,,0.01,,2013-06-28 18:22:00,
2013-06-28 13:33:00,70.0,64.0,29.73,NW,318,10.0,20.0,80,0.01,,,0.01,,2013-06-28 18:33:00,
2013-06-28 13:43:00,71.0,64.0,29.72,NW,322,14.0,23.0,78,0.01,,,0.01,,2013-06-28 18:43:00,
2013-06-28 13:52:00,72.0,64.0,29.72,NW,323,13.0,19.0,77,0.01,,,0.01,,2013-06-28 18:52:00,
2013-06-28 14:01:00,72.0,64.0,29.72,NW,323,13.0,19.0,77,0.01,,,0.01,,2013-06-28 19:01:00,
2013-06-28 14:11:00,68.0,63.0,29.72,NW,319,15.0,25.0,84,0.05,,,0.06,,2013-06-28 19:11:00,
2013-06-28 14:22:00,69.0,65.0,29.71,WNW,290,15.0,22.0,86,0.05,,,0.06,,2013-06-28 19:22:00,
2013-06-28 14:33:00,69.0,65.0,29.71,WNW,290,15.0,22.0,86,0.05,,,0.06,,2013-06-28 19:33:00,
2013-06-28 14:43:00,72.0,65.0,29.71,WNW,298,14.0,20.0,79,0.05,,,0.06,,2013-06-28 19:43:00,
2013-06-28 14:53:00,74.0,65.0,29.71,NW,311,14.0,21.0,74,0.05,,,0.06,,2013-06-28 19:53:00,
2013-06-28 15:02:00,74.0,65.0,29.71,NW,311,14.0,21.0,74,0.05,,,0.06,,2013-06-28 20:02:00,
2013-06-28 15:11:00,72.0,63.0,29.70,North,349,8.0,16.0,74,0.00,,,0.06,,2013-06-28 20:11:00,
2013-06-28 15:22:00,73.0,64.0,29.70,North,349,9.0,15.0,74,0.00,,,0.06,,2013-06-28 20:22:00,
2013-06-28 15:33:00,73.0,64.0,29.70,North,349,9.0,15.0,74,0.00,,,0.06,,2013-06-28 20:33:00,
2013-06-28 15:43:00,73.0,64.0,29.70,NNW,338,10.0,14.0,73,0.00,,,0.06,,2013-06-28 20:43:00,
2013-06-28 15:52:00,74.0,65.0,29.70,NNW,341,5.0,12.0,74,0.00,,,0.06,,2013-06-28 20:52:00,
2013-06-28 16:02:00,74.0,65.0,29.70,NNW,341,5.0,12.0,74,0.00,,,0.06,,2013-06-28 21:02:00,
2013-06-28 16:11:00,74.0,65.0,29.70,NNE,29,8.0,16.0,73,0.00,,,0.06,,2013-06-28 21:11:00,
2013-06-28 16:23:00,69.0,65.0,29.71,North,3,8.0,13.0,86,0.03,,,0.09,,2013-06-28 21:23:00,
2013-06-28 16:34:00,69.0,65.0,29.71,North,3,8.0,13.0,86,0.03,,,0.09,,2013-06-28 21:34:00,
2013-06-28 16:43:00,67.0,63.0,29.71,NE,37,12.0,25.0,87,0.03,,,0.09,,2013-06-28 21:43:00,
2013-06-28 16:53:00,70.0,65.0,29.70,North,359,13.0,19.0,84,0.03,,,0.09,,2013-06-28 21:53:00,
2013-06-28 17:01:00,70.0,65.0,29.70,North,359,13.0,19.0,84,0.03,,,0.09,,2013-06-28 22:01:00,
2013-06-28 17:11:00,71.0,66.0,29.71,North,349,12.0,19.0,83,0.03,,,0.09,,2013-06-28 22:11:00,
2013-06-28 17:22:00,72.0,65.0,29.72,NNE,20,14.0,19.0,79,0.00,,,0.09,,2013-06-28 22:22:00,
2013-06-28 17:34:00,72.0,65.0,29.72,NNE,20,14.0,19.0,79,0.00,,,0.09,,2013-06-28 22:34:00,
2013-06-28 17:43:00,72.0,64.0,29.72,NNW,340,10.0,19.0,75,0.00,,,0.09,,2013-06-28 22:43:00,
2013-06-28 17:52:00,70.0,62.0,29.72,North,6,10.0,21.0,77,0.00,,,0.09,,2013-06-28 22:52:00,
2013-06-28 18:02:00,70.0,62.0,29.72,North,6,10.0,21.0,77,0.00,,,0.09,,2013-06-28 23:02:00,
2013-06-28 18:11:00,70.0,63.0,29.72,North,349,9.0,16.0,78,0.00,,,0.09,,2013-06-28 23:11:00,
2013-06-28 18:23:00,70.0,62.0,29.72,North,349,10.0,16.0,76,0.00,,,0.09,,2013-06-28 23:23:00,
2013-06-28 18:34:00,70.0,62.0,29.72,North,349,10.0,16.0,76,0.00,,,0.09,,2013-06-28 23:34:00,
2013-06-28 18:43:00,70.0,63.0,29.72,NNW,334,9.0,14.0,78,0.00,,,0.09,,2013-06-28 23:43:00,
2013-06-28 18:53:00,70.0,63.0,29.72,NNW,341,9.0,15.0,78,0.00,,,0.09,,2013-06-28 23:53:00,
2013-06-28 19:02:00,70.0,63.0,29.72,NNW,341,9.0,15.0,78,0.00,,,0.09,,2013-06-29 00:02:00,
2013-06-28 19:11:00,70.0,62.0,29.72,NNW,329,9.0,15.0,77,0.00,,,0.09,,2013-06-29 00:11:00,
2013-06-28 19:22:00,71.0,63.0,29.73,North,359,11.0,16.0,75,0.00,,,0.09,,2013-06-29 00:22:00,
2013-06-28 19:33:00,71.0,63.0,29.73,North,359,11.0,16.0,75,0.00,,,0.09,,2013-06-29 00:33:00,
2013-06-28 19:42:00,71.0,63.0,29.73,North,359,11.0,16.0,75,0.00,,,0.09,,2013-06-29 00:42:00,
2013-06-28 19:50:00,69.0,62.0,29.73,NNW,327,9.0,15.0,78,0.00,,,0.09,,2013-06-29 00:50:00,
2013-06-28 19:52:00,71.0,63.0,29.73,North,359,11.0,16.0,75,0.00,,,0.09,,2013-06-29 00:52:00,
2013-06-28 20:01:00,71.0,63.0,29.73,North,359,11.0,16.0,75,0.00,,,0.09,,2013-06-29 01:01:00,
2013-06-28 20:11:00,69.0,62.0,29.73,NNW,327,9.0,15.0,78,0.00,,,0.09,,2013-06-29 01:11:00,
2013-06-28 20:22:00,69.0,62.0,29.73,NNW,327,9.0,15.0,78,0.00,,,0.09,,2013-06-29 01:22:00,
2013-06-28 20:32:00,69.0,62.0,29.73,NNW,327,9.0,15.0,78,0.00,,,0.09,,2013-06-29 01:32:00,
2013-06-28 20:42:00,69.0,62.0,29.73,NNW,327,9.0,15.0,78,0.00,,,0.09,,2013-06-29 01:42:00,
2013-06-28 22:11:00,67.0,61.0,29.76,North,359,7.0,12.0,81,0.00,,,0.09,,2013-06-29 03:11:00,
2013-06-28 22:21:00,67.0,61.0,29.76,North,359,7.0,12.0,81,0.00,,,0.09,,2013-06-29 03:21:00,
2013-06-28 22:32:00,67.0,61.0,29.76,North,359,7.0,12.0,81,0.00,,,0.09,,2013-06-29 03:32:00,
2013-06-28 22:41:00,67.0,61.0,29.76,North,359,7.0,12.0,81,0.00,,,0.09,,2013-06-29 03:41:00,
2013-06-28 22:51:00,67.0,61.0,29.76,North,359,7.0,12.0,81,0.00,,,0.09,,2013-06-29 03:51:00,
2013-06-28 23:01:00,65.0,61.0,29.76,North,5,7.0,12.0,86,0.00,,,0.09,,2013-06-29 04:01:00,
2013-06-28 23:11:00,65.0,61.0,29.76,North,5,7.0,12.0,86,0.00,,,0.09,,2013-06-29 04:11:00,
2013-06-28 23:23:00,65.0,61.0,29.76,North,5,7.0,12.0,86,0.00,,,0.09,,2013-06-29 04:23:00,
2013-06-28 23:32:00,65.0,61.0,29.76,North,5,7.0,12.0,86,0.00,,,0.09,,2013-06-29 04:32:00,
2013-06-28 23:41:00,65.0,61.0,29.76,North,5,7.0,12.0,86,0.00,,,0.09,,2013-06-29 04:41:00,